sensor_id;sensor_type;location;lat;lon;timestamp;P1;durP1;ratioP1;P2;durP2;ratioP2
41629;SDS011;27322;49.488;8.480;2022-12-18T00:01:40;62.58;;;23.98;;
41629;SDS011;27322;49.488;8.480;2022-12-18T00:04:07;63.47;;;24.85;;
41629;SDS011;27322;49.488;8.480;2022-12-18T00:06:46;62.13;;;24.08;;
41629;SDS011;27322;49.488;8.480;2022-12-18T00:09:12;61.63;;;23.48;;
41629;SDS011;27322;49.488;8.480;2022-12-18T00:11:37;58.97;;;22.70;;
41629;SDS011;27322;49.488;8.480;2022-12-18T00:14:03;58.63;;;23.70;;
41629;SDS011;27322;49.488;8.480;2022-12-18T00:16:29;60.63;;;23.33;;
41629;SDS011;27322;49.488;8.480;2022-12-18T00:18:57;58.45;;;23.48;;
41629;SDS011;27322;49.488;8.480;2022-12-18T00:21:24;58.50;;;23.55;;
41629;SDS011;27322;49.488;8.480;2022-12-18T00:23:50;56.03;;;22.55;;
41629;SDS011;27322;49.488;8.480;2022-12-18T00:26:17;59.38;;;23.77;;
41629;SDS011;27322;49.488;8.480;2022-12-18T00:28:45;59.67;;;23.23;;
41629;SDS011;27322;49.488;8.480;2022-12-18T00:31:12;60.92;;;24.00;;
41629;SDS011;27322;49.488;8.480;2022-12-18T00:33:39;57.03;;;24.20;;
41629;SDS011;27322;49.488;8.480;2022-12-18T00:36:06;61.28;;;23.10;;
41629;SDS011;27322;49.488;8.480;2022-12-18T00:38:34;57.70;;;23.73;;
41629;SDS011;27322;49.488;8.480;2022-12-18T00:41:01;60.63;;;24.90;;
41629;SDS011;27322;49.488;8.480;2022-12-18T00:43:26;62.40;;;24.38;;
41629;SDS011;27322;49.488;8.480;2022-12-18T00:45:52;61.22;;;24.35;;
41629;SDS011;27322;49.488;8.480;2022-12-18T00:48:18;59.42;;;23.50;;
41629;SDS011;27322;49.488;8.480;2022-12-18T00:50:44;58.72;;;24.05;;
41629;SDS011;27322;49.488;8.480;2022-12-18T00:53:10;56.58;;;23.98;;
41629;SDS011;27322;49.488;8.480;2022-12-18T00:55:39;63.80;;;24.60;;
41629;SDS011;27322;49.488;8.480;2022-12-18T00:58:08;66.72;;;24.95;;
41629;SDS011;27322;49.488;8.480;2022-12-18T01:00:34;57.22;;;23.25;;
41629;SDS011;27322;49.488;8.480;2022-12-18T01:03:00;58.67;;;23.85;;
41629;SDS011;27322;49.488;8.480;2022-12-18T01:05:26;59.00;;;23.80;;
41629;SDS011;27322;49.488;8.480;2022-12-18T01:07:52;61.53;;;24.35;;
41629;SDS011;27322;49.488;8.480;2022-12-18T01:10:17;60.45;;;24.63;;
41629;SDS011;27322;49.488;8.480;2022-12-18T01:12:43;61.85;;;24.88;;
41629;SDS011;27322;49.488;8.480;2022-12-18T01:15:09;58.22;;;23.88;;
41629;SDS011;27322;49.488;8.480;2022-12-18T01:17:36;59.35;;;24.75;;
41629;SDS011;27322;49.488;8.480;2022-12-18T01:20:02;63.03;;;25.25;;
41629;SDS011;27322;49.488;8.480;2022-12-18T01:22:29;64.68;;;25.55;;
41629;SDS011;27322;49.488;8.480;2022-12-18T01:24:54;65.03;;;24.67;;
41629;SDS011;27322;49.488;8.480;2022-12-18T01:27:20;58.90;;;24.80;;
41629;SDS011;27322;49.488;8.480;2022-12-18T01:29:45;63.13;;;25.05;;
41629;SDS011;27322;49.488;8.480;2022-12-18T01:32:11;64.10;;;25.77;;
41629;SDS011;27322;49.488;8.480;2022-12-18T01:34:36;65.75;;;24.48;;
41629;SDS011;27322;49.488;8.480;2022-12-18T01:37:03;63.78;;;24.30;;
41629;SDS011;27322;49.488;8.480;2022-12-18T01:39:30;64.68;;;24.67;;
41629;SDS011;27322;49.488;8.480;2022-12-18T01:41:57;62.17;;;25.60;;
41629;SDS011;27322;49.488;8.480;2022-12-18T01:49:59;63.40;;;24.40;;
41629;SDS011;27322;49.488;8.480;2022-12-18T01:52:56;63.80;;;25.38;;
41629;SDS011;27322;49.488;8.480;2022-12-18T01:55:26;67.13;;;24.42;;
41629;SDS011;27322;49.488;8.480;2022-12-18T01:57:56;71.90;;;26.10;;
41629;SDS011;27322;49.488;8.480;2022-12-18T02:00:24;59.42;;;24.52;;
41629;SDS011;27322;49.488;8.480;2022-12-18T02:02:52;62.88;;;25.55;;
41629;SDS011;27322;49.488;8.480;2022-12-18T02:08:20;65.75;;;25.40;;
41629;SDS011;27322;49.488;8.480;2022-12-18T02:11:22;63.28;;;25.23;;
41629;SDS011;27322;49.488;8.480;2022-12-18T02:14:00;65.57;;;26.08;;
41629;SDS011;27322;49.488;8.480;2022-12-18T02:27:10;54.20;;;23.08;;
41629;SDS011;27322;49.488;8.480;2022-12-18T02:29:44;59.47;;;24.33;;
41629;SDS011;27322;49.488;8.480;2022-12-18T02:32:16;59.88;;;23.88;;
41629;SDS011;27322;49.488;8.480;2022-12-18T02:34:47;53.42;;;23.20;;
41629;SDS011;27322;49.488;8.480;2022-12-18T02:37:16;68.97;;;24.00;;
41629;SDS011;27322;49.488;8.480;2022-12-18T02:39:44;61.80;;;24.33;;
41629;SDS011;27322;49.488;8.480;2022-12-18T02:42:12;61.58;;;24.15;;
41629;SDS011;27322;49.488;8.480;2022-12-18T02:44:44;60.35;;;23.63;;
41629;SDS011;27322;49.488;8.480;2022-12-18T02:47:12;64.78;;;25.27;;
41629;SDS011;27322;49.488;8.480;2022-12-18T03:00:22;61.70;;;24.13;;
41629;SDS011;27322;49.488;8.480;2022-12-18T03:02:56;63.45;;;24.40;;
41629;SDS011;27322;49.488;8.480;2022-12-18T03:05:22;64.43;;;24.40;;
41629;SDS011;27322;49.488;8.480;2022-12-18T03:10:37;57.88;;;23.52;;
41629;SDS011;27322;49.488;8.480;2022-12-18T03:13:08;63.45;;;24.30;;
41629;SDS011;27322;49.488;8.480;2022-12-18T03:15:39;59.13;;;23.38;;
41629;SDS011;27322;49.488;8.480;2022-12-18T03:18:19;58.75;;;23.35;;
41629;SDS011;27322;49.488;8.480;2022-12-18T03:20:54;62.00;;;24.17;;
41629;SDS011;27322;49.488;8.480;2022-12-18T03:23:24;61.22;;;24.83;;
41629;SDS011;27322;49.488;8.480;2022-12-18T03:25:57;59.38;;;23.92;;
41629;SDS011;27322;49.488;8.480;2022-12-18T03:28:26;59.83;;;23.30;;
41629;SDS011;27322;49.488;8.480;2022-12-18T03:30:56;58.05;;;23.70;;
41629;SDS011;27322;49.488;8.480;2022-12-18T03:33:28;66.28;;;25.20;;
41629;SDS011;27322;49.488;8.480;2022-12-18T03:36:18;68.28;;;26.45;;
41629;SDS011;27322;49.488;8.480;2022-12-18T03:38:43;62.40;;;23.95;;
41629;SDS011;27322;49.488;8.480;2022-12-18T03:41:18;62.17;;;24.52;;
41629;SDS011;27322;49.488;8.480;2022-12-18T03:43:57;61.03;;;23.95;;
41629;SDS011;27322;49.488;8.480;2022-12-18T03:46:41;61.35;;;23.27;;
41629;SDS011;27322;49.488;8.480;2022-12-18T03:49:11;58.75;;;23.38;;
41629;SDS011;27322;49.488;8.480;2022-12-18T03:51:54;59.28;;;25.05;;
41629;SDS011;27322;49.488;8.480;2022-12-18T03:54:26;73.55;;;24.88;;
41629;SDS011;27322;49.488;8.480;2022-12-18T03:57:04;64.55;;;24.83;;
41629;SDS011;27322;49.488;8.480;2022-12-18T03:59:33;61.85;;;24.58;;
41629;SDS011;27322;49.488;8.480;2022-12-18T04:02:01;64.68;;;24.15;;
41629;SDS011;27322;49.488;8.480;2022-12-18T04:04:29;66.50;;;24.52;;
41629;SDS011;27322;49.488;8.480;2022-12-18T04:06:56;65.88;;;25.98;;
41629;SDS011;27322;49.488;8.480;2022-12-18T04:09:23;67.00;;;26.15;;
41629;SDS011;27322;49.488;8.480;2022-12-18T04:11:49;69.55;;;26.13;;
41629;SDS011;27322;49.488;8.480;2022-12-18T04:14:16;67.93;;;25.30;;
41629;SDS011;27322;49.488;8.480;2022-12-18T04:16:42;67.22;;;25.38;;
41629;SDS011;27322;49.488;8.480;2022-12-18T04:19:07;68.18;;;25.67;;
41629;SDS011;27322;49.488;8.480;2022-12-18T04:21:33;69.03;;;26.27;;
41629;SDS011;27322;49.488;8.480;2022-12-18T04:23:59;69.25;;;26.60;;
41629;SDS011;27322;49.488;8.480;2022-12-18T04:26:24;70.30;;;27.02;;
41629;SDS011;27322;49.488;8.480;2022-12-18T04:28:50;75.05;;;27.92;;
41629;SDS011;27322;49.488;8.480;2022-12-18T04:31:15;74.57;;;28.10;;
41629;SDS011;27322;49.488;8.480;2022-12-18T04:33:41;68.53;;;25.92;;
41629;SDS011;27322;49.488;8.480;2022-12-18T04:36:07;62.35;;;25.67;;
41629;SDS011;27322;49.488;8.480;2022-12-18T04:38:32;67.05;;;25.85;;
41629;SDS011;27322;49.488;8.480;2022-12-18T04:40:58;67.90;;;26.77;;
41629;SDS011;27322;49.488;8.480;2022-12-18T04:43:23;70.88;;;26.48;;
41629;SDS011;27322;49.488;8.480;2022-12-18T04:45:49;67.78;;;25.85;;
41629;SDS011;27322;49.488;8.480;2022-12-18T04:48:15;68.80;;;25.50;;
41629;SDS011;27322;49.488;8.480;2022-12-18T04:50:40;64.82;;;24.17;;
41629;SDS011;27322;49.488;8.480;2022-12-18T04:53:06;66.18;;;25.27;;
41629;SDS011;27322;49.488;8.480;2022-12-18T04:55:31;62.50;;;25.13;;
41629;SDS011;27322;49.488;8.480;2022-12-18T04:57:57;63.33;;;24.60;;
41629;SDS011;27322;49.488;8.480;2022-12-18T05:00:22;65.75;;;25.23;;
41629;SDS011;27322;49.488;8.480;2022-12-18T05:02:48;65.90;;;25.60;;
41629;SDS011;27322;49.488;8.480;2022-12-18T05:05:14;65.68;;;25.33;;
41629;SDS011;27322;49.488;8.480;2022-12-18T05:07:39;64.72;;;23.27;;
41629;SDS011;27322;49.488;8.480;2022-12-18T05:10:05;71.25;;;25.75;;
41629;SDS011;27322;49.488;8.480;2022-12-18T05:12:31;63.78;;;23.70;;
41629;SDS011;27322;49.488;8.480;2022-12-18T05:14:57;68.95;;;24.45;;
41629;SDS011;27322;49.488;8.480;2022-12-18T05:17:22;63.22;;;24.85;;
41629;SDS011;27322;49.488;8.480;2022-12-18T05:19:48;63.08;;;25.42;;
41629;SDS011;27322;49.488;8.480;2022-12-18T05:22:14;62.05;;;24.48;;
41629;SDS011;27322;49.488;8.480;2022-12-18T05:24:39;59.15;;;24.25;;
41629;SDS011;27322;49.488;8.480;2022-12-18T05:27:05;59.65;;;24.02;;
41629;SDS011;27322;49.488;8.480;2022-12-18T05:29:31;61.45;;;24.67;;
41629;SDS011;27322;49.488;8.480;2022-12-18T05:31:56;70.82;;;25.60;;
41629;SDS011;27322;49.488;8.480;2022-12-18T05:34:22;60.90;;;23.77;;
41629;SDS011;27322;49.488;8.480;2022-12-18T05:36:47;67.40;;;25.33;;
41629;SDS011;27322;49.488;8.480;2022-12-18T05:39:13;74.22;;;27.13;;
41629;SDS011;27322;49.488;8.480;2022-12-18T05:41:39;71.47;;;26.98;;
41629;SDS011;27322;49.488;8.480;2022-12-18T05:44:04;62.83;;;24.35;;
41629;SDS011;27322;49.488;8.480;2022-12-18T05:46:30;64.25;;;23.58;;
41629;SDS011;27322;49.488;8.480;2022-12-18T05:48:58;62.72;;;24.38;;
41629;SDS011;27322;49.488;8.480;2022-12-18T05:51:25;61.33;;;24.88;;
41629;SDS011;27322;49.488;8.480;2022-12-18T05:53:50;62.20;;;24.73;;
41629;SDS011;27322;49.488;8.480;2022-12-18T05:56:20;62.35;;;23.40;;
41629;SDS011;27322;49.488;8.480;2022-12-18T05:58:47;61.70;;;23.95;;
41629;SDS011;27322;49.488;8.480;2022-12-18T06:01:17;70.95;;;25.15;;
41629;SDS011;27322;49.488;8.480;2022-12-18T06:03:44;66.82;;;24.65;;
41629;SDS011;27322;49.488;8.480;2022-12-18T06:06:17;62.72;;;24.27;;
41629;SDS011;27322;49.488;8.480;2022-12-18T06:08:43;66.13;;;24.65;;
41629;SDS011;27322;49.488;8.480;2022-12-18T06:11:09;67.88;;;24.70;;
41629;SDS011;27322;49.488;8.480;2022-12-18T06:13:35;68.68;;;25.92;;
41629;SDS011;27322;49.488;8.480;2022-12-18T06:16:06;72.50;;;25.50;;
41629;SDS011;27322;49.488;8.480;2022-12-18T06:18:33;63.42;;;23.98;;
41629;SDS011;27322;49.488;8.480;2022-12-18T06:20:59;64.70;;;24.42;;
41629;SDS011;27322;49.488;8.480;2022-12-18T06:23:25;75.35;;;25.33;;
41629;SDS011;27322;49.488;8.480;2022-12-18T06:25:51;71.05;;;25.90;;
41629;SDS011;27322;49.488;8.480;2022-12-18T06:28:16;63.65;;;23.77;;
41629;SDS011;27322;49.488;8.480;2022-12-18T06:30:46;65.88;;;23.85;;
41629;SDS011;27322;49.488;8.480;2022-12-18T06:33:13;63.83;;;24.52;;
41629;SDS011;27322;49.488;8.480;2022-12-18T06:35:39;68.40;;;25.35;;
41629;SDS011;27322;49.488;8.480;2022-12-18T06:38:05;71.05;;;25.73;;
41629;SDS011;27322;49.488;8.480;2022-12-18T06:40:31;75.55;;;25.25;;
41629;SDS011;27322;49.488;8.480;2022-12-18T06:42:57;70.47;;;25.98;;
41629;SDS011;27322;49.488;8.480;2022-12-18T06:45:23;65.88;;;24.48;;
41629;SDS011;27322;49.488;8.480;2022-12-18T06:47:49;73.95;;;25.98;;
41629;SDS011;27322;49.488;8.480;2022-12-18T06:50:15;67.43;;;25.65;;
41629;SDS011;27322;49.488;8.480;2022-12-18T06:52:40;70.20;;;24.90;;
41629;SDS011;27322;49.488;8.480;2022-12-18T06:55:07;78.47;;;25.67;;
41629;SDS011;27322;49.488;8.480;2022-12-18T06:57:33;70.55;;;25.17;;
41629;SDS011;27322;49.488;8.480;2022-12-18T06:59:59;75.18;;;26.02;;
41629;SDS011;27322;49.488;8.480;2022-12-18T07:02:24;65.72;;;23.70;;
41629;SDS011;27322;49.488;8.480;2022-12-18T07:04:50;64.32;;;24.45;;
41629;SDS011;27322;49.488;8.480;2022-12-18T07:07:16;69.40;;;25.10;;
41629;SDS011;27322;49.488;8.480;2022-12-18T07:09:41;68.65;;;24.95;;
41629;SDS011;27322;49.488;8.480;2022-12-18T07:12:07;68.82;;;24.25;;
41629;SDS011;27322;49.488;8.480;2022-12-18T07:14:33;67.60;;;25.92;;
41629;SDS011;27322;49.488;8.480;2022-12-18T07:16:58;71.60;;;25.27;;
41629;SDS011;27322;49.488;8.480;2022-12-18T07:19:24;68.88;;;26.63;;
41629;SDS011;27322;49.488;8.480;2022-12-18T07:21:50;71.07;;;26.63;;
41629;SDS011;27322;49.488;8.480;2022-12-18T07:24:16;81.65;;;29.63;;
41629;SDS011;27322;49.488;8.480;2022-12-18T07:26:41;74.50;;;27.10;;
41629;SDS011;27322;49.488;8.480;2022-12-18T07:29:07;77.82;;;28.10;;
41629;SDS011;27322;49.488;8.480;2022-12-18T07:31:33;75.82;;;27.52;;
41629;SDS011;27322;49.488;8.480;2022-12-18T07:33:58;68.60;;;27.80;;
41629;SDS011;27322;49.488;8.480;2022-12-18T07:36:24;69.93;;;26.25;;
41629;SDS011;27322;49.488;8.480;2022-12-18T07:38:50;68.10;;;26.23;;
41629;SDS011;27322;49.488;8.480;2022-12-18T07:41:17;64.55;;;25.15;;
41629;SDS011;27322;49.488;8.480;2022-12-18T07:43:43;66.90;;;24.80;;
41629;SDS011;27322;49.488;8.480;2022-12-18T07:46:09;66.25;;;25.77;;
41629;SDS011;27322;49.488;8.480;2022-12-18T07:48:36;68.03;;;25.65;;
41629;SDS011;27322;49.488;8.480;2022-12-18T07:51:02;60.85;;;24.35;;
41629;SDS011;27322;49.488;8.480;2022-12-18T07:53:29;57.80;;;24.13;;
41629;SDS011;27322;49.488;8.480;2022-12-18T07:55:58;60.47;;;24.67;;
41629;SDS011;27322;49.488;8.480;2022-12-18T07:58:30;63.67;;;24.70;;
41629;SDS011;27322;49.488;8.480;2022-12-18T08:01:06;61.53;;;24.45;;
41629;SDS011;27322;49.488;8.480;2022-12-18T08:03:32;62.33;;;24.27;;
41629;SDS011;27322;49.488;8.480;2022-12-18T08:06:02;65.15;;;25.42;;
41629;SDS011;27322;49.488;8.480;2022-12-18T08:08:29;67.30;;;25.05;;
41629;SDS011;27322;49.488;8.480;2022-12-18T08:10:55;61.28;;;24.15;;
41629;SDS011;27322;49.488;8.480;2022-12-18T08:13:22;59.45;;;23.95;;
41629;SDS011;27322;49.488;8.480;2022-12-18T08:16:01;64.03;;;25.70;;
41629;SDS011;27322;49.488;8.480;2022-12-18T08:18:29;62.47;;;25.17;;
41629;SDS011;27322;49.488;8.480;2022-12-18T08:21:06;62.00;;;25.00;;
41629;SDS011;27322;49.488;8.480;2022-12-18T08:23:35;64.47;;;25.00;;
41629;SDS011;27322;49.488;8.480;2022-12-18T08:26:02;59.55;;;24.45;;
41629;SDS011;27322;49.488;8.480;2022-12-18T08:28:27;62.10;;;25.58;;
41629;SDS011;27322;49.488;8.480;2022-12-18T08:30:53;60.80;;;24.50;;
41629;SDS011;27322;49.488;8.480;2022-12-18T08:33:18;65.47;;;24.77;;
41629;SDS011;27322;49.488;8.480;2022-12-18T08:35:44;64.07;;;25.20;;
41629;SDS011;27322;49.488;8.480;2022-12-18T08:38:10;66.05;;;25.58;;
41629;SDS011;27322;49.488;8.480;2022-12-18T08:40:35;70.13;;;24.95;;
41629;SDS011;27322;49.488;8.480;2022-12-18T08:43:01;62.42;;;24.40;;
41629;SDS011;27322;49.488;8.480;2022-12-18T08:45:45;64.18;;;25.52;;
41629;SDS011;27322;49.488;8.480;2022-12-18T08:48:10;68.53;;;25.63;;
41629;SDS011;27322;49.488;8.480;2022-12-18T08:50:36;65.68;;;24.38;;
41629;SDS011;27322;49.488;8.480;2022-12-18T08:53:01;60.30;;;24.02;;
41629;SDS011;27322;49.488;8.480;2022-12-18T08:55:27;64.63;;;24.92;;
41629;SDS011;27322;49.488;8.480;2022-12-18T08:57:53;63.55;;;26.00;;
41629;SDS011;27322;49.488;8.480;2022-12-18T09:00:18;66.90;;;25.58;;
41629;SDS011;27322;49.488;8.480;2022-12-18T09:02:44;66.88;;;25.30;;
41629;SDS011;27322;49.488;8.480;2022-12-18T09:05:10;66.43;;;24.65;;
41629;SDS011;27322;49.488;8.480;2022-12-18T09:07:36;64.70;;;24.77;;
41629;SDS011;27322;49.488;8.480;2022-12-18T09:10:02;65.43;;;25.33;;
41629;SDS011;27322;49.488;8.480;2022-12-18T09:12:28;65.50;;;26.77;;
41629;SDS011;27322;49.488;8.480;2022-12-18T09:14:53;67.15;;;26.50;;
41629;SDS011;27322;49.488;8.480;2022-12-18T09:17:19;63.22;;;25.35;;
41629;SDS011;27322;49.488;8.480;2022-12-18T09:19:44;61.33;;;25.38;;
41629;SDS011;27322;49.488;8.480;2022-12-18T09:22:10;65.28;;;25.58;;
41629;SDS011;27322;49.488;8.480;2022-12-18T09:24:36;68.15;;;25.52;;
41629;SDS011;27322;49.488;8.480;2022-12-18T09:27:01;65.68;;;26.75;;
41629;SDS011;27322;49.488;8.480;2022-12-18T09:29:27;70.05;;;27.27;;
41629;SDS011;27322;49.488;8.480;2022-12-18T09:31:53;71.30;;;26.23;;
41629;SDS011;27322;49.488;8.480;2022-12-18T09:34:19;67.25;;;27.20;;
41629;SDS011;27322;49.488;8.480;2022-12-18T09:36:46;63.40;;;25.60;;
41629;SDS011;27322;49.488;8.480;2022-12-18T09:39:12;65.32;;;26.83;;
41629;SDS011;27322;49.488;8.480;2022-12-18T09:41:39;65.50;;;26.48;;
41629;SDS011;27322;49.488;8.480;2022-12-18T09:46:38;62.55;;;27.33;;
41629;SDS011;27322;49.488;8.480;2022-12-18T09:49:11;65.57;;;27.90;;
41629;SDS011;27322;49.488;8.480;2022-12-18T09:54:16;67.45;;;26.70;;
41629;SDS011;27322;49.488;8.480;2022-12-18T09:56:46;65.10;;;26.83;;
41629;SDS011;27322;49.488;8.480;2022-12-18T09:59:20;68.72;;;27.73;;
41629;SDS011;27322;49.488;8.480;2022-12-18T10:01:46;66.85;;;28.35;;
41629;SDS011;27322;49.488;8.480;2022-12-18T10:04:12;71.60;;;29.50;;
41629;SDS011;27322;49.488;8.480;2022-12-18T10:09:42;68.78;;;28.42;;
41629;SDS011;27322;49.488;8.480;2022-12-18T10:12:36;69.90;;;28.75;;
41629;SDS011;27322;49.488;8.480;2022-12-18T10:20:44;73.18;;;29.48;;
41629;SDS011;27322;49.488;8.480;2022-12-18T10:28:17;60.28;;;25.60;;
41629;SDS011;27322;49.488;8.480;2022-12-18T10:30:44;60.25;;;25.77;;
41629;SDS011;27322;49.488;8.480;2022-12-18T10:33:16;61.65;;;25.45;;
41629;SDS011;27322;49.488;8.480;2022-12-18T10:35:44;55.38;;;24.40;;
41629;SDS011;27322;49.488;8.480;2022-12-18T10:43:40;68.15;;;27.35;;
41629;SDS011;27322;49.488;8.480;2022-12-18T10:54:23;61.47;;;27.20;;
41629;SDS011;27322;49.488;8.480;2022-12-18T10:56:50;69.97;;;30.98;;
41629;SDS011;27322;49.488;8.480;2022-12-18T10:59:16;74.07;;;31.10;;
41629;SDS011;27322;49.488;8.480;2022-12-18T11:04:23;78.15;;;32.63;;
41629;SDS011;27322;49.488;8.480;2022-12-18T11:09:24;72.82;;;31.60;;
41629;SDS011;27322;49.488;8.480;2022-12-18T11:11:54;69.70;;;31.35;;
41629;SDS011;27322;49.488;8.480;2022-12-18T11:14:31;76.35;;;32.10;;
41629;SDS011;27322;49.488;8.480;2022-12-18T11:16:59;74.15;;;31.48;;
41629;SDS011;27322;49.488;8.480;2022-12-18T11:19:38;72.95;;;30.90;;
41629;SDS011;27322;49.488;8.480;2022-12-18T11:27:24;83.00;;;33.78;;
41629;SDS011;27322;49.488;8.480;2022-12-18T11:29:50;78.30;;;33.72;;
41629;SDS011;27322;49.488;8.480;2022-12-18T11:32:22;82.03;;;32.70;;
41629;SDS011;27322;49.488;8.480;2022-12-18T11:34:55;84.18;;;33.63;;
41629;SDS011;27322;49.488;8.480;2022-12-18T11:37:28;79.85;;;33.58;;
41629;SDS011;27322;49.488;8.480;2022-12-18T11:39:56;61.28;;;27.00;;
41629;SDS011;27322;49.488;8.480;2022-12-18T11:42:39;58.10;;;25.13;;
41629;SDS011;27322;49.488;8.480;2022-12-18T11:47:43;81.25;;;34.58;;
41629;SDS011;27322;49.488;8.480;2022-12-18T11:52:44;79.60;;;34.80;;
41629;SDS011;27322;49.488;8.480;2022-12-18T12:00:32;72.68;;;31.00;;
41629;SDS011;27322;49.488;8.480;2022-12-18T12:03:20;79.03;;;35.10;;
41629;SDS011;27322;49.488;8.480;2022-12-18T12:12:02;81.53;;;34.05;;
41629;SDS011;27322;49.488;8.480;2022-12-18T12:17:09;83.97;;;31.83;;
41629;SDS011;27322;49.488;8.480;2022-12-18T12:19:56;76.47;;;31.85;;
41629;SDS011;27322;49.488;8.480;2022-12-18T12:26:14;81.80;;;34.92;;
41629;SDS011;27322;49.488;8.480;2022-12-18T12:39:16;77.25;;;33.58;;
41629;SDS011;27322;49.488;8.480;2022-12-18T12:41:45;86.00;;;35.85;;
41629;SDS011;27322;49.488;8.480;2022-12-18T12:44:32;77.47;;;34.85;;
41629;SDS011;27322;49.488;8.480;2022-12-18T12:49:50;78.50;;;33.72;;
41629;SDS011;27322;49.488;8.480;2022-12-18T12:52:18;79.60;;;34.13;;
41629;SDS011;27322;49.488;8.480;2022-12-18T12:54:47;81.88;;;34.10;;
41629;SDS011;27322;49.488;8.480;2022-12-18T12:57:16;81.15;;;34.72;;
41629;SDS011;27322;49.488;8.480;2022-12-18T13:07:40;77.50;;;32.35;;
41629;SDS011;27322;49.488;8.480;2022-12-18T13:20:39;74.53;;;32.78;;
41629;SDS011;27322;49.488;8.480;2022-12-18T13:25:47;68.43;;;30.95;;
41629;SDS011;27322;49.488;8.480;2022-12-18T13:30:58;74.47;;;32.58;;
41629;SDS011;27322;49.488;8.480;2022-12-18T13:41:42;71.15;;;30.13;;
41629;SDS011;27322;49.488;8.480;2022-12-18T13:46:50;65.88;;;29.08;;
41629;SDS011;27322;49.488;8.480;2022-12-18T13:49:21;69.97;;;30.48;;
41629;SDS011;27322;49.488;8.480;2022-12-18T13:51:54;65.80;;;29.75;;
41629;SDS011;27322;49.488;8.480;2022-12-18T13:56:49;65.78;;;30.33;;
41629;SDS011;27322;49.488;8.480;2022-12-18T14:01:54;67.25;;;31.08;;
41629;SDS011;27322;49.488;8.480;2022-12-18T14:04:29;69.22;;;31.23;;
41629;SDS011;27322;49.488;8.480;2022-12-18T14:06:57;67.45;;;29.98;;
41629;SDS011;27322;49.488;8.480;2022-12-18T14:09:29;66.93;;;30.20;;
41629;SDS011;27322;49.488;8.480;2022-12-18T14:11:59;62.83;;;29.73;;
41629;SDS011;27322;49.488;8.480;2022-12-18T14:14:45;73.32;;;30.77;;
41629;SDS011;27322;49.488;8.480;2022-12-18T14:17:13;66.05;;;29.48;;
41629;SDS011;27322;49.488;8.480;2022-12-18T14:19:49;67.32;;;30.90;;
41629;SDS011;27322;49.488;8.480;2022-12-18T14:22:17;68.50;;;30.90;;
41629;SDS011;27322;49.488;8.480;2022-12-18T14:24:44;69.05;;;32.10;;
41629;SDS011;27322;49.488;8.480;2022-12-18T14:27:21;72.38;;;31.88;;
41629;SDS011;27322;49.488;8.480;2022-12-18T14:29:49;68.75;;;31.95;;
41629;SDS011;27322;49.488;8.480;2022-12-18T14:34:46;72.82;;;31.17;;
41629;SDS011;27322;49.488;8.480;2022-12-18T14:37:14;70.47;;;31.48;;
41629;SDS011;27322;49.488;8.480;2022-12-18T14:39:58;68.57;;;32.75;;
41629;SDS011;27322;49.488;8.480;2022-12-18T14:42:31;71.07;;;30.52;;
41629;SDS011;27322;49.488;8.480;2022-12-18T14:47:58;66.25;;;31.27;;
41629;SDS011;27322;49.488;8.480;2022-12-18T14:50:25;65.90;;;30.33;;
41629;SDS011;27322;49.488;8.480;2022-12-18T14:52:51;74.32;;;32.42;;
41629;SDS011;27322;49.488;8.480;2022-12-18T14:55:17;72.13;;;30.50;;
41629;SDS011;27322;49.488;8.480;2022-12-18T14:57:44;65.75;;;29.42;;
41629;SDS011;27322;49.488;8.480;2022-12-18T15:00:17;66.00;;;30.48;;
41629;SDS011;27322;49.488;8.480;2022-12-18T15:02:45;69.05;;;31.48;;
41629;SDS011;27322;49.488;8.480;2022-12-18T15:05:20;66.53;;;30.33;;
41629;SDS011;27322;49.488;8.480;2022-12-18T15:07:54;64.35;;;29.95;;
41629;SDS011;27322;49.488;8.480;2022-12-18T15:10:26;67.03;;;30.52;;
41629;SDS011;27322;49.488;8.480;2022-12-18T15:20:44;63.92;;;29.17;;
41629;SDS011;27322;49.488;8.480;2022-12-18T15:25:47;67.55;;;29.75;;
41629;SDS011;27322;49.488;8.480;2022-12-18T15:28:26;69.93;;;31.20;;
41629;SDS011;27322;49.488;8.480;2022-12-18T15:36:07;69.25;;;31.75;;
41629;SDS011;27322;49.488;8.480;2022-12-18T15:38:35;73.63;;;32.70;;
41629;SDS011;27322;49.488;8.480;2022-12-18T15:41:00;71.65;;;32.92;;
41629;SDS011;27322;49.488;8.480;2022-12-18T15:43:30;78.25;;;33.22;;
41629;SDS011;27322;49.488;8.480;2022-12-18T15:46:21;72.07;;;31.98;;
41629;SDS011;27322;49.488;8.480;2022-12-18T15:48:51;72.78;;;33.22;;
41629;SDS011;27322;49.488;8.480;2022-12-18T15:51:25;65.20;;;31.52;;
41629;SDS011;27322;49.488;8.480;2022-12-18T15:53:58;70.45;;;33.10;;
41629;SDS011;27322;49.488;8.480;2022-12-18T15:56:26;68.68;;;31.85;;
41629;SDS011;27322;49.488;8.480;2022-12-18T15:59:11;73.07;;;33.10;;
41629;SDS011;27322;49.488;8.480;2022-12-18T16:01:38;68.45;;;33.08;;
41629;SDS011;27322;49.488;8.480;2022-12-18T16:04:04;76.18;;;33.83;;
41629;SDS011;27322;49.488;8.480;2022-12-18T16:06:30;74.03;;;34.00;;
41629;SDS011;27322;49.488;8.480;2022-12-18T16:08:56;71.07;;;32.50;;
41629;SDS011;27322;49.488;8.480;2022-12-18T16:11:28;74.75;;;33.35;;
41629;SDS011;27322;49.488;8.480;2022-12-18T16:16:42;70.60;;;31.55;;
41629;SDS011;27322;49.488;8.480;2022-12-18T16:19:08;72.50;;;32.92;;
41629;SDS011;27322;49.488;8.480;2022-12-18T16:21:33;73.00;;;32.33;;
41629;SDS011;27322;49.488;8.480;2022-12-18T16:23:59;76.43;;;33.75;;
41629;SDS011;27322;49.488;8.480;2022-12-18T16:26:25;64.03;;;31.50;;
41629;SDS011;27322;49.488;8.480;2022-12-18T16:28:50;68.90;;;31.73;;
41629;SDS011;27322;49.488;8.480;2022-12-18T16:31:16;79.57;;;33.70;;
41629;SDS011;27322;49.488;8.480;2022-12-18T16:33:42;75.35;;;35.00;;
41629;SDS011;27322;49.488;8.480;2022-12-18T16:36:07;76.10;;;34.53;;
41629;SDS011;27322;49.488;8.480;2022-12-18T16:38:33;74.38;;;33.75;;
41629;SDS011;27322;49.488;8.480;2022-12-18T16:40:59;70.57;;;33.78;;
41629;SDS011;27322;49.488;8.480;2022-12-18T16:43:43;74.53;;;34.78;;
41629;SDS011;27322;49.488;8.480;2022-12-18T16:46:09;75.22;;;35.00;;
41629;SDS011;27322;49.488;8.480;2022-12-18T16:48:34;70.65;;;33.67;;
41629;SDS011;27322;49.488;8.480;2022-12-18T16:51:00;74.57;;;33.67;;
41629;SDS011;27322;49.488;8.480;2022-12-18T16:53:27;73.80;;;33.80;;
41629;SDS011;27322;49.488;8.480;2022-12-18T16:55:54;77.72;;;36.03;;
41629;SDS011;27322;49.488;8.480;2022-12-18T16:58:20;74.55;;;34.50;;
41629;SDS011;27322;49.488;8.480;2022-12-18T17:00:45;75.55;;;34.17;;
41629;SDS011;27322;49.488;8.480;2022-12-18T17:03:11;68.72;;;32.50;;
41629;SDS011;27322;49.488;8.480;2022-12-18T17:05:36;70.93;;;34.05;;
41629;SDS011;27322;49.488;8.480;2022-12-18T17:08:02;65.03;;;33.00;;
41629;SDS011;27322;49.488;8.480;2022-12-18T17:10:28;68.18;;;32.53;;
41629;SDS011;27322;49.488;8.480;2022-12-18T17:12:53;71.80;;;34.55;;
41629;SDS011;27322;49.488;8.480;2022-12-18T17:15:19;70.05;;;32.88;;
41629;SDS011;27322;49.488;8.480;2022-12-18T17:17:44;70.38;;;33.35;;
41629;SDS011;27322;49.488;8.480;2022-12-18T17:20:10;71.50;;;32.83;;
41629;SDS011;27322;49.488;8.480;2022-12-18T17:22:36;66.90;;;31.98;;
41629;SDS011;27322;49.488;8.480;2022-12-18T17:25:01;67.55;;;31.77;;